Aquinnah, Massachusetts
Current Conditions -  °F | °C
As of 7:53 AM on Saturday 22 Nov 2014 (Local Time) from KMVY Reporting Station
Clear Clear  
Wind Chill: 26°   Ceiling: Unl
Heat Index: 33°   Visibility: 10mi
Dew Point: 16°   Wind: 8mph
Humidity: 50%   Direction: 260°W
Pressure: 30.44"   Gusts: NA
Location:  41.3536°N, 70.7417°W
Report Text: KMVY 221253Z 26007KT 10SM CLR 01/M09 A3044 RMK AO2 SLP309 T00061089
Loading
Personal Weather Stations






























Interactive Weather Map New forecast layout! Learn more

10-Day Weather Forecast

Advertisements
Track Severe Weather on mobile